Time;durP1;ratioP1;P1;durP2;ratioP2;P2;SDS_P1;SDS_P2;PMS_P1;PMS_P2;Temp;Humidity;BMP_temperature;BMP_pressure;BME280_temperature;BME280_humidity;BME280_pressure;Samples;Min_cycle;Max_cycle;Signal;HPM_P1;HPM_P2
2022/06/23 00:02:29;;;;;;;;;11.00;11.00;;;;;26.97;35.56;98765.25;5082930;28;9635;-79
2022/06/23 00:05:01;;;;;;;;;11.00;10.40;;;;;26.97;35.40;98762.56;5086174;28;8896;-76
2022/06/23 00:07:35;;;;;;;;;10.40;10.40;;;;;26.97;35.74;98767.94;5085237;28;8862;-75
2022/06/23 00:10:13;;;;;;;;;12.00;12.00;;;;;26.93;36.04;98761.13;5051790;28;8850;-76
2022/06/23 00:12:44;;;;;;;;;11.00;10.20;;;;;26.91;35.57;98755.88;5070684;28;8862;-76
2022/06/23 00:15:27;;;;;;;;;9.60;9.40;;;;;26.88;35.89;98755.28;5069113;28;8874;-76
2022/06/23 00:17:59;;;;;;;;;11.40;10.60;;;;;26.87;36.22;98758.97;5070174;28;8858;-76
2022/06/23 00:20:33;;;;;;;;;12.60;11.40;;;;;26.85;36.35;98761.75;5070103;28;8913;-76
2022/06/23 00:23:07;;;;;;;;;9.40;9.40;;;;;26.81;36.22;98760.31;5070288;28;8827;-76
2022/06/23 00:25:44;;;;;;;;;11.20;11.20;;;;;26.75;36.19;98769.66;5069199;28;8838;-75
2022/06/23 00:28:17;;;;;;;;;10.80;10.00;;;;;26.68;36.73;98751.56;5070217;28;8885;-76
2022/06/23 00:30:53;;;;;;;;;11.00;10.60;;;;;26.65;36.73;98741.94;5070503;28;8957;-76
2022/06/23 00:33:28;;;;;;;;;8.60;8.60;;;;;26.53;36.93;98729.53;5067973;28;9568;-75
2022/06/23 00:35:59;;;;;;;;;12.20;12.00;;;;;26.42;37.23;98709.81;5068771;28;8881;-76
2022/06/23 00:38:32;;;;;;;;;11.80;11.80;;;;;26.36;37.29;98704.13;5100460;27;9611;-76
2022/06/23 00:41:02;;;;;;;;;10.20;10.20;;;;;26.25;37.47;98705.81;5084072;28;8874;-75
2022/06/23 00:43:31;;;;;;;;;13.40;13.00;;;;;26.20;37.18;98716.03;5086688;28;8891;-75
2022/06/23 00:46:10;;;;;;;;;9.60;9.60;;;;;26.14;37.55;98713.81;5068283;28;8859;-76
2022/06/23 00:48:44;;;;;;;;;11.00;10.60;;;;;26.17;37.30;98721.63;5065606;28;8863;-77
2022/06/23 00:51:18;;;;;;;;;9.00;9.00;;;;;26.18;37.49;98722.44;5068391;28;8870;-74
2022/06/23 00:53:52;;;;;;;;;9.60;9.60;;;;;26.17;37.15;98707.41;5070022;28;8870;-74
2022/06/23 00:56:37;;;;;;;;;10.80;9.80;;;;;26.15;37.40;98694.16;5067072;28;8989;-76
2022/06/23 00:59:15;;;;;;;;;8.60;8.60;;;;;26.15;37.31;98710.19;5068579;28;8861;-76
2022/06/23 01:01:51;;;;;;;;;10.80;9.20;;;;;26.10;37.50;98712.38;5068231;28;8842;-76
2022/06/23 01:04:28;;;;;;;;;10.20;9.00;;;;;26.11;37.60;98707.91;5081811;28;8837;-76
2022/06/23 01:07:02;;;;;;;;;11.60;11.60;;;;;26.11;37.56;98708.75;5073390;28;8854;-77
2022/06/23 01:09:40;;;;;;;;;10.80;10.80;;;;;26.04;37.67;98700.34;5083708;28;9052;-77
2022/06/23 01:12:21;;;;;;;;;12.20;11.40;;;;;26.08;37.35;98684.06;5090503;28;8854;-77
2022/06/23 01:14:55;;;;;;;;;10.60;10.60;;;;;26.03;38.12;98705.78;5072404;28;9619;-74
2022/06/23 01:17:28;;;;;;;;;11.20;11.20;;;;;26.03;37.86;98714.69;5070173;28;8965;-76
2022/06/23 01:20:16;;;;;;;;;11.20;11.20;;;;;26.05;37.66;98711.91;5072876;28;8858;-75
2022/06/23 01:22:58;;;;;;;;;8.80;8.80;;;;;26.08;37.91;98708.97;5072369;28;8915;-78
2022/06/23 01:25:48;;;;;;;;;9.60;9.60;;;;;26.00;38.12;98722.09;5068035;28;8842;-77
2022/06/23 01:28:21;;;;;;;;;9.00;9.00;;;;;26.03;38.08;98743.19;5083375;28;8862;-78
2022/06/23 01:30:57;;;;;;;;;9.00;9.00;;;;;26.05;37.86;98728.78;5086142;28;8874;-75
2022/06/23 01:33:31;;;;;;;;;12.00;11.40;;;;;25.96;38.82;98716.13;5049885;28;8839;-75
2022/06/23 01:36:05;;;;;;;;;11.20;11.00;;;;;26.03;39.07;98740.53;5073432;28;8870;-75
2022/06/23 01:38:46;;;;;;;;;11.40;11.40;;;;;26.04;40.32;98726.22;5088103;28;8863;-74
2022/06/23 01:41:22;;;;;;;;;11.00;11.00;;;;;25.85;40.80;98711.56;5049390;28;8846;-75
2022/06/23 01:43:59;;;;;;;;;13.00;11.00;;;;;25.75;42.93;98723.94;5065920;28;8830;-75
2022/06/23 01:46:35;;;;;;;;;13.60;12.60;;;;;25.65;42.60;98762.97;5067476;28;8887;-74
2022/06/23 01:49:09;;;;;;;;;11.00;11.00;;;;;25.68;44.04;98789.47;5082115;28;8863;-76
2022/06/23 01:51:43;;;;;;;;;10.00;10.00;;;;;25.10;44.77;98856.81;5082707;28;8872;-75
2022/06/23 01:54:15;;;;;;;;;12.80;11.80;;;;;23.63;49.63;98944.00;5065796;28;8888;-75
2022/06/23 01:56:52;;;;;;;;;16.80;14.60;;;;;22.88;51.00;99022.16;5068237;28;8835;-76
2022/06/23 01:59:39;;;;;;;;;14.60;13.00;;;;;22.37;54.63;99077.41;5069531;28;8843;-76
2022/06/23 02:02:23;;;;;;;;;21.00;18.20;;;;;20.48;78.76;99080.16;5066908;28;8842;-76
2022/06/23 02:05:02;;;;;;;;;20.60;20.20;;;;;19.98;90.04;99046.34;5065226;28;8878;-77
2022/06/23 02:07:37;;;;;;;;;21.20;20.00;;;;;20.11;99.62;98997.19;5067311;28;9032;-77
2022/06/23 02:10:18;;;;;;;;;17.20;17.00;;;;;20.11;100.00;99009.56;5064846;28;8901;-76
2022/06/23 02:12:52;;;;;;;;;22.20;22.00;;;;;19.67;99.00;98992.22;5067297;28;8854;-78
2022/06/23 02:15:28;;;;;;;;;22.80;22.80;;;;;19.94;100.00;98976.84;5065589;28;8862;-75
2022/06/23 02:18:02;;;;;;;;;20.00;19.20;;;;;20.18;100.00;98952.75;5082211;28;8858;-76
2022/06/23 02:20:42;;;;;;;;;25.75;25.25;;;;;20.19;100.00;98928.00;5066848;28;8859;-79
2022/06/23 02:23:20;;;;;;;;;27.50;25.25;;;;;20.17;100.00;98917.50;5064146;28;8878;-76
2022/06/23 02:25:55;;;;;;;;;23.80;22.60;;;;;20.16;100.00;98928.16;5065490;28;8862;-75
2022/06/23 02:28:34;;;;;;;;;20.00;19.20;;;;;20.12;100.00;98930.09;5099413;28;8878;-77
2022/06/23 02:31:12;;;;;;;;;19.60;19.60;;;;;20.00;100.00;98906.88;5066046;28;8964;-77
2022/06/23 02:33:51;;;;;;;;;20.40;18.60;;;;;19.96;100.00;98892.06;5016760;28;8883;-78
2022/06/23 02:36:31;;;;;;;;;22.60;20.20;;;;;19.93;100.00;98889.59;5066871;28;9147;-76
2022/06/23 02:39:03;;;;;;;;;20.60;19.20;;;;;19.93;100.00;98874.56;5066792;28;8850;-76
2022/06/23 02:41:40;;;;;;;;;21.80;19.40;;;;;19.84;100.00;98867.09;5066641;28;8867;-76
2022/06/23 02:44:27;;;;;;;;;20.80;20.60;;;;;19.94;100.00;98878.06;5068047;28;8951;-78
2022/06/23 02:47:13;;;;;;;;;25.80;22.60;;;;;20.03;100.00;98880.25;5049151;28;8850;-75
2022/06/23 02:49:54;;;;;;;;;20.40;19.80;;;;;19.88;100.00;98883.66;5066534;28;8969;-77
2022/06/23 02:52:44;;;;;;;;;19.20;18.60;;;;;19.92;100.00;98885.22;5068166;28;8858;-80
2022/06/23 02:55:30;;;;;;;;;24.00;21.60;;;;;19.97;100.00;98864.69;4997756;28;8840;-76
2022/06/23 02:58:05;;;;;;;;;21.40;20.60;;;;;19.95;100.00;98871.84;5005892;28;8891;-77
2022/06/23 03:00:43;;;;;;;;;21.60;21.60;;;;;20.04;100.00;98848.41;4989451;28;8961;-79
2022/06/23 03:03:20;;;;;;;;;22.40;22.40;;;;;20.10;100.00;98835.81;5004696;28;8852;-76
2022/06/23 03:05:55;;;;;;;;;19.40;19.40;;;;;19.98;100.00;98826.69;5002864;28;8825;-78
2022/06/23 03:08:30;;;;;;;;;18.40;17.20;;;;;19.68;98.86;98822.00;4984312;28;8956;-76
2022/06/23 03:11:04;;;;;;;;;17.80;17.40;;;;;19.54;100.00;98825.28;4984403;28;8838;-77
2022/06/23 03:13:41;;;;;;;;;20.60;20.40;;;;;19.59;100.00;98827.72;4984064;28;8960;-76
2022/06/23 03:16:19;;;;;;;;;26.40;24.80;;;;;19.60;100.00;98827.66;4969468;28;8854;-75
2022/06/23 03:18:56;;;;;;;;;21.00;21.00;;;;;19.64;100.00;98828.34;4986879;28;8901;-76
2022/06/23 03:21:31;;;;;;;;;64.67;52.67;;;;;19.68;100.00;98838.72;4967575;28;8937;-75
2022/06/23 03:24:07;;;;;;;;;55.75;45.25;;;;;19.68;100.00;98872.25;4986988;28;9126;-74
2022/06/23 03:26:43;;;;;;;;;21.40;20.00;;;;;19.72;100.00;98887.06;4969442;28;9706;-74
2022/06/23 03:29:18;;;;;;;;;22.60;21.00;;;;;19.83;100.00;98892.69;4970940;28;8866;-73
2022/06/23 03:31:57;;;;;;;;;21.20;20.00;;;;;19.70;96.63;98925.94;4997851;28;8843;-74
2022/06/23 03:34:35;;;;;;;;;21.00;21.00;;;;;19.59;93.55;98925.59;5066136;28;8850;-76
2022/06/23 03:37:08;;;;;;;;;17.80;17.80;;;;;19.81;98.75;98909.56;5079211;28;8828;-75
2022/06/23 03:42:35;;;;;;;;;24.20;22.20;;;;;20.11;100.00;98925.72;5081732;28;8857;-76
2022/06/23 03:45:14;;;;;;;;;19.20;19.20;;;;;20.25;100.00;98935.63;5087044;28;8862;-73
2022/06/23 03:47:50;;;;;;;;;22.40;21.20;;;;;20.34;98.53;98943.13;5084495;28;8850;-75
2022/06/23 03:50:26;;;;;;;;;22.20;21.80;;;;;20.37;96.27;98947.41;5086635;28;8857;-75
2022/06/23 03:53:00;;;;;;;;;23.80;22.80;;;;;20.40;97.54;98944.59;5068932;28;8841;-76
2022/06/23 03:55:37;;;;;;;;;23.20;22.40;;;;;20.52;98.52;98937.81;5086535;28;8980;-79
2022/06/23 03:58:16;;;;;;;;;24.80;23.80;;;;;20.68;99.56;98940.56;5069673;28;8931;-75
2022/06/23 04:00:57;;;;;;;;;23.80;23.40;;;;;20.77;98.41;98954.19;5086552;28;8870;-76
2022/06/23 04:03:31;;;;;;;;;21.00;21.00;;;;;20.89;98.75;98957.13;5053523;28;8852;-75
2022/06/23 04:06:32;;;;;;;;;21.80;21.60;;;;;21.02;97.84;98968.84;5049796;28;8848;-79
2022/06/23 04:09:07;;;;;;;;;20.80;20.00;;;;;21.03;95.75;98970.53;5082359;28;8858;-75
2022/06/23 04:11:46;;;;;;;;;24.20;23.20;;;;;21.02;92.46;98972.34;5069608;28;8889;-76
2022/06/23 04:14:27;;;;;;;;;20.40;20.00;;;;;20.93;90.08;98986.06;5100784;28;8877;-78
2022/06/23 04:17:07;;;;;;;;;21.40;20.80;;;;;20.92;89.90;98994.94;5069179;28;8862;-74
2022/06/23 04:19:38;;;;;;;;;22.80;21.00;;;;;20.84;90.12;99010.38;5068568;28;8844;-77
2022/06/23 04:22:12;;;;;;;;;22.20;21.60;;;;;20.78;87.61;99002.75;5049675;28;8893;-75
2022/06/23 04:24:46;;;;;;;;;29.75;28.00;;;;;20.81;89.19;99013.19;5090833;28;8877;-76
2022/06/23 04:27:19;;;;;;;;;33.75;30.50;;;;;20.95;92.06;99025.75;5051759;28;8866;-78
2022/06/23 04:29:52;;;;;;;;;23.80;23.40;;;;;21.00;92.91;99027.22;5068522;28;8850;-76
2022/06/23 04:32:25;;;;;;;;;25.40;25.40;;;;;21.06;92.43;99007.50;5068086;28;9677;-76
2022/06/23 04:34:58;;;;;;;;;25.80;24.80;;;;;21.13;91.32;98998.25;5049184;28;9628;-78
2022/06/23 04:37:35;;;;;;;;;23.20;22.80;;;;;21.14;91.56;98989.38;5070061;28;8858;-75
2022/06/23 04:40:18;;;;;;;;;23.80;22.40;;;;;21.22;91.41;99002.22;5068424;28;8850;-74
2022/06/23 04:42:53;;;;;;;;;48.75;39.75;;;;;21.25;90.21;98993.25;5068386;28;8858;-78
2022/06/23 04:45:30;;;;;;;;;24.25;23.25;;;;;21.23;88.51;98994.19;5083922;28;8852;-77
2022/06/23 04:48:03;;;;;;;;;30.20;26.20;;;;;21.29;90.32;98993.00;5067932;28;9074;-77
2022/06/23 04:50:41;;;;;;;;;70.50;59.50;;;;;21.39;89.99;98986.25;5067715;28;8862;-75
2022/06/23 04:53:42;;;;;;;;;57.75;46.75;;;;;21.45;88.48;98981.59;5087046;28;10655;-75
2022/06/23 04:56:20;;;;;;;;;26.00;26.00;;;;;21.45;87.74;98976.31;5072390;28;8901;-76
2022/06/23 04:58:53;;;;;;;;;25.60;23.40;;;;;21.41;85.69;98962.31;5068992;28;8977;-76
2022/06/23 05:01:27;;;;;;;;;23.50;23.25;;;;;21.45;85.81;98987.75;5052543;28;8854;-78
2022/06/23 05:03:58;;;;;;;;;26.50;26.50;;;;;21.52;85.54;98988.28;5072245;28;8974;-76
2022/06/23 05:06:36;;;;;;;;;26.00;26.00;;;;;21.57;85.39;98987.09;5068905;28;8873;-77
2022/06/23 05:09:12;;;;;;;;;29.00;28.50;;;;;21.66;86.45;98979.56;5084737;28;8869;-75
2022/06/23 05:11:46;;;;;;;;;30.25;29.50;;;;;21.59;82.67;98992.34;5073718;28;9668;-77
2022/06/23 05:14:21;;;;;;;;;30.75;30.00;;;;;21.64;84.43;99003.53;5102297;28;8835;-76
2022/06/23 05:16:55;;;;;;;;;33.50;30.75;;;;;21.69;88.58;98982.91;5070539;28;8867;-74
2022/06/23 05:19:29;;;;;;;;;34.25;31.50;;;;;21.79;88.63;98988.56;5066242;28;8876;-78
2022/06/23 05:22:01;;;;;;;;;31.80;29.60;;;;;21.82;87.43;98992.88;5046069;28;8862;-77
2022/06/23 05:24:40;;;;;;;;;32.00;29.50;;;;;21.93;86.80;98995.78;5013479;28;8983;-78
2022/06/23 05:27:17;;;;;;;;;21.80;21.20;;;;;21.75;82.29;98995.84;5046161;28;8849;-76
2022/06/23 05:29:50;;;;;;;;;26.25;26.00;;;;;21.84;85.76;99004.25;5045523;28;8854;-77
2022/06/23 05:32:24;;;;;;;;;28.50;27.50;;;;;21.90;87.96;99015.38;5058221;28;8943;-78
2022/06/23 05:34:59;;;;;;;;;25.75;25.50;;;;;21.99;88.10;99041.41;5029148;28;8919;-78
2022/06/23 05:37:33;;;;;;;;;33.50;31.25;;;;;21.85;84.80;99046.63;5048664;28;8883;-78
2022/06/23 05:40:25;;;;;;;;;32.75;30.00;;;;;21.78;84.89;99043.44;5048564;28;8905;-76
2022/06/23 05:43:00;;;;;;;;;35.00;30.25;;;;;21.87;87.35;99028.84;5049110;28;8875;-78
2022/06/23 05:45:32;;;;;;;;;26.00;22.00;;;;;21.86;83.64;99031.56;5064476;28;8898;-77
2022/06/23 05:48:05;;;;;;;;;26.75;26.25;;;;;21.91;84.39;99037.44;5032073;28;8852;-75
2022/06/23 05:50:43;;;;;;;;;26.40;25.40;;;;;21.94;82.90;99038.16;5047395;28;8964;-76
2022/06/23 05:53:19;;;;;;;;;24.80;23.20;;;;;21.98;85.46;99050.34;5079344;28;8855;-77
2022/06/23 05:55:54;;;;;;;;;21.80;20.80;;;;;21.97;84.64;99051.25;5102419;28;8831;-76
2022/06/23 05:58:30;;;;;;;;;21.60;20.80;;;;;21.91;83.07;99041.00;5096305;28;8843;-76
2022/06/23 06:01:07;;;;;;;;;24.80;23.60;;;;;21.94;83.59;99032.84;5084344;28;8889;-78
2022/06/23 06:03:43;;;;;;;;;25.60;25.00;;;;;21.91;84.70;99045.41;5067994;28;8854;-74
2022/06/23 06:06:13;;;;;;;;;26.20;23.60;;;;;21.92;84.19;99037.38;5066007;28;8997;-77
2022/06/23 06:11:36;;;;;;;;;27.00;27.00;;;;;21.98;83.48;99034.41;5066374;28;8859;-77
2022/06/23 06:14:14;;;;;;;;;24.00;23.20;;;;;21.97;80.67;99035.31;5066920;28;8943;-77
2022/06/23 06:16:43;;;;;;;;;24.20;21.80;;;;;22.02;81.92;99035.06;5052038;28;9635;-75
2022/06/23 06:19:14;;;;;;;;;23.00;22.80;;;;;22.10;83.26;99048.78;5066761;28;8854;-77
2022/06/23 06:21:43;;;;;;;;;26.40;24.40;;;;;22.17;82.91;99052.81;5067243;28;8882;-76
2022/06/23 06:24:19;;;;;;;;;25.40;24.40;;;;;22.20;80.52;99070.38;5085243;28;8867;-78
2022/06/23 06:26:52;;;;;;;;;21.60;21.40;;;;;22.24;81.27;99063.94;5083930;28;8870;-75
2022/06/23 06:29:24;;;;;;;;;23.80;21.80;;;;;22.31;82.98;99078.63;5087401;28;8835;-75
2022/06/23 06:31:59;;;;;;;;;26.75;26.25;;;;;22.38;82.96;99092.41;5102347;28;8851;-75
2022/06/23 06:34:33;;;;;;;;;26.60;26.00;;;;;22.45;82.07;99098.25;5086788;28;10135;-75
2022/06/23 06:37:02;;;;;;;;;28.25;27.75;;;;;22.47;81.49;99099.00;5068309;28;8848;-74
2022/06/23 06:39:37;;;;;;;;;30.25;29.00;;;;;22.45;77.96;99091.13;5050388;28;8848;-76
2022/06/23 06:42:11;;;;;;;;;24.60;23.80;;;;;22.37;77.04;99101.34;5084944;28;8948;-74
2022/06/23 06:44:43;;;;;;;;;29.75;27.50;;;;;22.38;80.48;99111.00;5084564;28;8940;-72
2022/06/23 06:47:18;;;;;;;;;33.25;30.50;;;;;22.35;79.68;99135.94;5068634;28;8862;-76
2022/06/23 06:49:48;;;;;;;;;40.00;34.75;;;;;22.35;80.19;99146.56;5066929;28;8884;-76
2022/06/23 06:52:17;;;;;;;;;36.00;32.75;;;;;22.34;80.13;99134.25;5065981;28;8843;-76
2022/06/23 06:54:49;;;;;;;;;33.75;31.25;;;;;22.36;81.88;99127.06;5086505;28;8979;-77
2022/06/23 06:57:27;;;;;;;;;32.00;31.00;;;;;22.36;80.86;99120.84;5086455;28;8856;-77
2022/06/23 07:00:00;;;;;;;;;23.60;23.40;;;;;22.18;75.60;99133.34;5048720;28;8854;-75
2022/06/23 07:02:36;;;;;;;;;22.60;21.00;;;;;21.97;73.30;99141.53;5066244;28;8870;-75
2022/06/23 07:05:18;;;;;;;;;26.80;25.40;;;;;22.05;78.32;99150.88;5066652;28;8916;-75
2022/06/23 07:07:54;;;;;;;;;26.40;25.60;;;;;22.07;78.73;99155.16;5066829;28;8854;-76
2022/06/23 07:10:28;;;;;;;;;17.25;15.75;;;;;22.08;77.13;99159.56;5066589;28;8931;-76
2022/06/23 07:13:02;;;;;;;;;28.75;26.75;;;;;21.93;73.47;99161.22;5065285;28;8842;-76
2022/06/23 07:15:35;;;;;;;;;28.25;28.25;;;;;21.93;76.09;99171.00;5067671;28;8876;-75
2022/06/23 07:18:15;;;;;;;;;25.60;23.20;;;;;21.74;70.44;99171.97;5088480;28;8835;-76
2022/06/23 07:20:51;;;;;;;;;18.60;17.00;;;;;21.76;72.02;99174.53;5080336;28;9620;-77
2022/06/23 07:23:26;;;;;;;;;13.80;13.00;;;;;21.69;71.76;99184.59;5071382;28;8936;-76
2022/06/23 07:26:00;;;;;;;;;15.00;15.00;;;;;21.50;69.48;99165.28;5070283;28;8857;-77
2022/06/23 07:28:36;;;;;;;;;19.60;19.60;;;;;21.56;72.20;99167.63;5071071;28;8862;-76
2022/06/23 07:31:11;;;;;;;;;24.00;23.60;;;;;21.54;73.10;99164.19;5070974;28;8858;-77
2022/06/23 07:33:46;;;;;;;;;18.80;18.40;;;;;21.61;75.64;99162.94;5070721;28;8834;-77
2022/06/23 07:36:20;;;;;;;;;19.40;18.80;;;;;21.59;74.72;99159.50;5084865;28;8874;-77
2022/06/23 07:38:52;;;;;;;;;18.60;18.20;;;;;21.62;75.71;99177.91;5074654;28;8828;-77
2022/06/23 07:41:26;;;;;;;;;18.40;17.80;;;;;21.43;72.03;99180.63;5088947;28;8836;-77
2022/06/23 07:44:03;;;;;;;;;21.20;19.80;;;;;21.39;75.12;99181.72;5078102;28;8842;-78
2022/06/23 07:46:33;;;;;;;;;25.20;22.80;;;;;21.30;74.07;99174.22;5045001;28;8944;-78
2022/06/23 07:49:03;;;;;;;;;24.25;24.25;;;;;21.29;77.20;99183.97;5050781;28;8836;-78
2022/06/23 07:51:32;;;;;;;;;23.80;23.20;;;;;21.31;77.63;99189.22;5067533;28;8887;-76
2022/06/23 07:54:01;;;;;;;;;19.20;19.00;;;;;21.25;76.48;99189.50;5067374;28;8863;-77
2022/06/23 07:56:34;;;;;;;;;28.50;27.00;;;;;21.29;77.58;99191.94;5072529;28;8864;-77
2022/06/23 07:59:08;;;;;;;;;21.60;20.60;;;;;21.13;74.93;99197.13;5071740;28;8888;-76
2022/06/23 08:01:43;;;;;;;;;20.60;20.20;;;;;21.12;76.67;99192.78;5077961;28;8944;-77
2022/06/23 08:04:20;;;;;;;;;12.60;12.00;;;;;20.94;72.19;99186.56;5066998;28;8856;-78
2022/06/23 08:06:50;;;;;;;;;14.20;14.20;;;;;20.80;74.27;99184.59;5048216;28;8931;-76
2022/06/23 08:09:26;;;;;;;;;18.00;18.00;;;;;20.68;73.83;99181.69;5073764;28;8846;-77
2022/06/23 08:14:50;;;;;;;;;19.80;19.00;;;;;20.75;76.96;99188.41;5088552;28;8849;-78
2022/06/23 08:17:19;;;;;;;;;14.40;13.60;;;;;20.73;75.67;99185.81;5087860;28;8866;-77
2022/06/23 08:19:52;;;;;;;;;16.00;15.40;;;;;20.82;77.76;99187.19;5073136;28;8842;-76
2022/06/23 08:22:23;;;;;;;;;13.80;13.00;;;;;20.85;77.54;99189.69;5002922;28;8909;-78
2022/06/23 08:25:04;;;;;;;;;15.20;15.20;;;;;20.73;75.94;99191.13;5068680;28;8850;-77
2022/06/23 08:27:52;;;;;;;;;18.00;17.00;;;;;20.91;80.11;99196.50;5069608;28;8870;-78
2022/06/23 08:30:24;;;;;;;;;19.40;18.80;;;;;20.93;79.83;99189.31;5068474;28;8866;-78
2022/06/23 08:32:54;;;;;;;;;21.60;20.00;;;;;21.05;80.89;99188.69;5073105;28;8873;-77
2022/06/23 08:35:32;;;;;;;;;20.20;19.20;;;;;21.18;80.61;99192.47;5087731;28;8932;-78
2022/06/23 08:38:07;;;;;;;;;19.80;19.00;;;;;21.34;80.99;99192.56;5087902;28;8840;-77
2022/06/23 08:40:48;;;;;;;;;23.80;23.80;;;;;21.52;82.31;99195.25;5089070;28;8886;-73
2022/06/23 08:43:27;;;;;;;;;22.00;20.60;;;;;21.66;79.28;99190.06;5090067;28;8859;-77
2022/06/23 08:46:06;;;;;;;;;24.80;24.80;;;;;21.84;80.55;99200.69;5081334;28;8868;-75
2022/06/23 08:48:47;;;;;;;;;30.20;28.40;;;;;21.90;78.40;99205.66;5078962;28;8852;-74
2022/06/23 08:51:23;;;;;;;;;26.40;25.80;;;;;22.12;81.15;99216.88;5086188;28;8836;-75
2022/06/23 08:54:06;;;;;;;;;23.40;21.60;;;;;22.28;77.01;99208.09;5087820;28;8839;-76
2022/06/23 08:56:43;;;;;;;;;29.60;28.60;;;;;22.49;79.54;99217.53;5075530;28;9596;-75
2022/06/23 08:59:21;;;;;;;;;29.00;27.80;;;;;22.61;77.32;99212.50;5069787;28;8880;-74
2022/06/23 09:02:09;;;;;;;;;26.80;25.80;;;;;22.72;79.77;99226.03;5069979;28;8850;-75
2022/06/23 09:04:48;;;;;;;;;31.25;30.50;;;;;22.76;78.64;99225.81;5088724;28;8860;-78
2022/06/23 09:07:30;;;;;;;;;31.75;30.00;;;;;22.83;77.50;99228.13;5088445;28;8875;-78
2022/06/23 09:10:09;;;;;;;;;36.25;31.75;;;;;22.96;75.93;99223.81;5088646;28;8828;-79
2022/06/23 09:12:51;;;;;;;;;32.20;30.40;;;;;23.21;76.28;99217.13;5087022;28;9629;-75
2022/06/23 09:15:37;;;;;;;;;31.75;30.00;;;;;23.44;75.53;99221.97;5082978;28;8889;-74
2022/06/23 09:18:34;;;;;;;;;37.00;32.75;;;;;23.73;73.44;99222.03;5088338;28;8836;-74
2022/06/23 09:21:30;;;;;;;;;30.00;28.20;;;;;24.02;73.79;99214.97;5088883;28;8835;-75
2022/06/23 09:24:26;;;;;;;;;36.00;32.50;;;;;24.22;74.90;99218.22;5088070;28;8847;-74
2022/06/23 09:26:59;;;;;;;;;28.40;27.00;;;;;24.24;72.15;99222.50;5086381;28;8836;-74
2022/06/23 09:29:46;;;;;;;;;26.20;25.20;;;;;24.42;70.61;99231.13;5069646;28;8844;-77
2022/06/23 09:32:30;;;;;;;;;25.60;24.60;;;;;24.50;70.93;99234.19;5068869;28;8932;-76
2022/06/23 09:35:22;;;;;;;;;30.50;29.25;;;;;24.60;70.80;99230.97;5088885;28;8897;-75
2022/06/23 09:38:16;;;;;;;;;35.50;32.25;;;;;24.72;66.98;99235.50;5088992;28;9633;-74
2022/06/23 09:40:59;;;;;;;;;30.75;29.00;;;;;24.73;67.81;99237.25;5076377;28;8846;-75
2022/06/23 09:43:58;;;;;;;;;30.00;27.75;;;;;24.83;69.50;99242.84;5068376;28;8982;-74
2022/06/23 09:46:53;;;;;;;;;35.50;33.00;;;;;24.94;67.57;99234.16;5067097;28;9561;-76
2022/06/23 09:49:39;;;;;;;;;29.50;29.00;;;;;24.84;65.64;99241.88;5048300;28;8848;-77
2022/06/23 09:52:30;;;;;;;;;34.00;32.00;;;;;24.94;68.08;99245.66;5066173;28;8888;-76
2022/06/23 09:55:23;;;;;;;;;31.80;30.80;;;;;25.03;64.94;99245.06;5062095;28;8913;-76
2022/06/23 09:58:08;;;;;;;;;26.40;25.40;;;;;25.14;63.82;99244.38;5085535;28;8955;-77
2022/06/23 10:00:49;;;;;;;;;32.25;31.25;;;;;25.23;65.75;99256.28;5073037;28;8831;-76
2022/06/23 10:03:35;;;;;;;;;29.20;27.20;;;;;25.41;64.47;99252.41;5065341;28;8876;-73
2022/06/23 10:06:39;;;;;;;;;30.75;30.00;;;;;25.62;62.75;99243.91;5064565;28;8870;-79
2022/06/23 10:09:23;;;;;;;;;25.75;25.75;;;;;25.73;61.13;99252.03;5053441;28;8842;-79
2022/06/23 10:12:11;;;;;;;;;22.80;22.00;;;;;25.79;59.44;99248.94;5068370;28;8858;-77
2022/06/23 10:15:00;;;;;;;;;29.50;28.25;;;;;25.92;60.95;99250.78;5042170;28;8913;-79
2022/06/23 10:17:52;;;;;;;;;21.20;19.80;;;;;25.96;59.80;99253.16;5077037;28;8880;-77
2022/06/23 10:20:41;;;;;;;;;23.00;22.00;;;;;26.01;58.84;99251.03;5037625;28;8884;-77
2022/06/23 10:23:47;;;;;;;;;28.80;26.80;;;;;25.97;59.82;99241.50;4985498;28;8935;-79
2022/06/23 10:26:32;;;;;;;;;26.00;23.40;;;;;26.00;60.08;99251.13;4893174;29;8977;-80
2022/06/23 10:29:23;;;;;;;;;24.00;23.40;;;;;26.00;59.89;99254.66;4909114;29;8855;-80
2022/06/23 10:32:16;;;;;;;;;19.80;19.80;;;;;26.16;60.09;99257.13;4918122;29;8888;-79
2022/06/23 10:35:04;;;;;;;;;23.00;21.80;;;;;26.28;58.63;99258.09;4897425;29;8950;-78
2022/06/23 10:37:57;;;;;;;;;21.60;20.80;;;;;26.36;58.76;99265.56;4881978;29;8973;-78
2022/06/23 10:41:03;;;;;;;;;23.40;23.00;;;;;26.25;56.07;99263.63;4892107;29;9087;-79
2022/06/23 10:44:01;;;;;;;;;22.40;22.40;;;;;26.46;57.82;99271.97;4873559;29;8889;-79
2022/06/23 10:46:35;;;;;;;;;20.20;20.20;;;;;26.57;58.17;99280.09;4801428;29;8859;-78
2022/06/23 10:49:26;;;;;;;;;23.00;23.00;;;;;26.90;58.18;99273.31;4835075;29;8875;-79
2022/06/23 10:52:24;;;;;;;;;26.00;25.00;;;;;27.08;57.10;99283.66;4835554;29;8865;-78
2022/06/23 10:55:23;;;;;;;;;25.60;24.20;;;;;27.29;55.99;99281.22;4814563;29;8890;-80
2022/06/23 10:58:11;;;;;;;;;25.60;25.40;;;;;27.17;55.22;99275.78;4825452;29;8884;-77
2022/06/23 11:00:54;;;;;;;;;23.80;23.60;;;;;27.30;55.77;99285.63;4841737;29;9095;-79
2022/06/23 11:03:50;;;;;;;;;27.20;25.00;;;;;27.44;55.45;99277.41;4890182;28;8860;-78
2022/06/23 11:06:32;;;;;;;;;26.75;25.75;;;;;27.53;54.26;99273.19;4951706;28;8869;-78
2022/06/23 11:09:25;;;;;;;;;28.25;27.25;;;;;27.66;52.81;99273.13;4932189;29;8867;-78
2022/06/23 11:12:05;;;;;;;;;23.40;21.40;;;;;27.74;53.52;99263.50;4940054;28;8927;-79
2022/06/23 11:14:47;;;;;;;;;23.20;21.20;;;;;27.92;54.23;99265.78;4947585;28;8897;-76
2022/06/23 11:17:30;;;;;;;;;24.60;24.60;;;;;27.98;53.43;99262.66;4947234;28;8879;-77
2022/06/23 11:20:12;;;;;;;;;23.80;23.60;;;;;27.85;54.08;99267.22;4941467;28;9581;-79
2022/06/23 11:22:47;;;;;;;;;23.75;22.50;;;;;27.96;54.08;99262.75;4933816;28;8875;-78
2022/06/23 11:25:37;;;;;;;;;20.80;20.80;;;;;28.14;53.25;99252.41;4951343;28;8911;-77
2022/06/23 11:28:15;;;;;;;;;24.60;23.40;;;;;28.08;52.87;99263.63;4996013;28;8928;-78
2022/06/23 11:30:58;;;;;;;;;23.75;23.75;;;;;28.30;52.86;99257.44;4986630;28;8849;-79
2022/06/23 11:33:48;;;;;;;;;27.25;25.00;;;;;28.44;52.12;99260.88;5081136;28;8882;-78
2022/06/23 11:36:45;;;;;;;;;23.50;23.50;;;;;28.43;51.26;99259.16;5048693;28;8880;-77
2022/06/23 11:39:43;;;;;;;;;21.60;20.40;;;;;28.44;51.07;99263.56;5009030;28;8850;-77
2022/06/23 11:42:27;;;;;;;;;23.20;23.20;;;;;28.47;50.19;99263.28;5012156;28;8989;-78
2022/06/23 11:45:20;;;;;;;;;20.80;19.60;;;;;28.66;50.69;99265.38;5025209;28;9026;-75
2022/06/23 11:48:01;;;;;;;;;21.00;21.00;;;;;28.77;51.60;99266.25;4974812;28;8866;-75
2022/06/23 11:50:39;;;;;;;;;20.80;19.20;;;;;28.89;52.17;99260.88;5008203;28;8892;-81
2022/06/23 11:53:38;;;;;;;;;19.80;19.80;;;;;28.85;49.70;99260.25;5021768;28;8946;-75
2022/06/23 11:56:17;;;;;;;;;20.20;18.60;;;;;28.94;50.95;99261.31;5027827;28;8852;-76
2022/06/23 11:59:02;;;;;;;;;25.60;20.80;;;;;28.99;48.84;99260.97;5028182;28;8848;-75
2022/06/23 12:01:31;;;;;;;;;18.00;17.60;;;;;28.69;50.06;99265.16;5028246;28;8903;-76
2022/06/23 12:04:27;;;;;;;;;18.60;18.60;;;;;28.68;49.45;99264.31;4977733;28;8875;-75
2022/06/23 12:07:10;;;;;;;;;19.00;17.20;;;;;28.57;50.62;99270.53;4949813;28;8847;-75
2022/06/23 12:09:46;;;;;;;;;22.00;20.20;;;;;28.47;50.35;99274.91;4968653;28;8886;-76
2022/06/23 12:12:15;;;;;;;;;22.40;20.00;;;;;28.48;50.82;99267.69;4952852;28;8864;-78
2022/06/23 12:14:44;;;;;;;;;15.00;14.60;;;;;28.46;50.96;99277.69;4950213;28;8881;-76
2022/06/23 12:17:20;;;;;;;;;18.80;18.00;;;;;28.60;49.43;99274.78;4994991;28;8931;-75
2022/06/23 12:19:57;;;;;;;;;18.80;18.80;;;;;28.59;49.54;99275.78;5007620;28;8897;-75
2022/06/23 12:22:36;;;;;;;;;16.60;16.60;;;;;28.65;48.69;99271.75;5007871;28;8894;-77
2022/06/23 12:25:17;;;;;;;;;19.20;19.00;;;;;28.58;49.34;99269.56;5007838;28;9628;-75
2022/06/23 12:27:55;;;;;;;;;14.80;14.80;;;;;28.67;49.34;99262.59;4991055;28;8854;-78